Fairmount City, Pennsylvania
Current Conditions -  °F | °C
As of 4:53 AM on Wednesday 26 Nov 2014 (Local Time) from KDUJ Reporting Station
Clear Clear  
Wind Chill: 28°   Ceiling: Unl
Heat Index: 28°   Visibility: 9mi
Dew Point: 24°   Wind: 3mph
Humidity: 85%   Direction: 50°NE
Pressure: 30.08"   Gusts: NA
Location:  41.01°N, 79.32°W
Report Text: KDUJ 260953Z AUTO 05003KT 9SM CLR M02/M04 A3008 RMK AO2 SLP202 T10221044
Loading
Personal Weather Stations






























Interactive Weather Map New forecast layout! Learn more

10-Day Weather Forecast

Advertisements
Track Severe Weather on mobile